Gulfport, MS (39501)

8:49 AM CDT on September 05, 2015 (GMT -0500)
Gulfport Municipal Marina & Jones Park | | Change Station
CLOSE
Current Station
Personal Weather Station
Location: Gulfport, MS
Elevation: 7 ft
Nearby Weather Stations

Elev 7 ft 30.36 °N, 89.09 °W | Updated 5 seconds ago

Clear
Clear
82.3 °F
Feels Like 90 °F
N
12.7
Wind Variable Wind from North
Gusts 12.7 mph

Today
High -- | Low -- °F
--% Chance of Precip.
Yesterday
High -- | Low -- °F
Precip. -- in
6:35 AM 7:14 PM
Waning Gibbous, 48% visible
Pressure 30.02 in
Visibility 10.0 miles
Clouds Clear
Heat Index 90 °F
Dew Point 77 °F
Humidity 83%
Rainfall 0.00 in
Snow Depth Not available.
UV 1 out of 12
Pollen 7.60 out of 12
Air Quality Not available.
Flu Activity Not available.
METAR KGPT 051253Z 30004KT 10SM CLR 25/23 A3002 RMK AO2 SLP166 T02500233
Pressure 30.02 in
Visibility 10.0 miles
Clouds Clear
Heat Index 90 °F
Dew Point 77 °F
Humidity 83%
Rainfall 0.00 in
Snow Depth Not available.
UV 1 out of 12
Pollen 7.60 out of 12
Air Quality Not available.
Flu Activity Not available.
METAR KGPT 051253Z 30004KT 10SM CLR 25/23 A3002 RMK AO2 SLP166 T02500233

10-Day Weather Forecast

×

Almanac

Astronomy

Sep. 05, 2015 Rise Set
Actual Time
Civil Twilight
Nautical Twilight
Astronomical Twilight
Moon
Length of Visible Light
Length of Day
Tomorrow will be .
, % of the Moon is Illuminated

Today's Extremes

State Highs State Lows

Community

WunderPhotos

Upload Photos

1,852,464 photos uploaded!

WunderBlogs® & News

Nearby

Air Quality

  Air Quality AQ Index Pollutant
Not available.

Snow Depth

Station Depth Elevation

Earthquake Activity

City Distance Mag. Time & Date
Minimum magnitude displayed is 2.5.

Coastal Water Temperatures

Place Temperature

Stations

Nearby Weather Stations

Station Location Temp. Windchill Dew Point Humidity Wind Precip. Elev Updated Type